sensor_id;sensor_type;location;lat;lon;timestamp;noise_LAeq;noise_LA_min;noise_LA_max;noise_LA01;noise_LA95
43385;Laerm;28988;48.042;7.584;2023-03-05T00:02:05;90.13;-42.24;98.60;;
43385;Laerm;28988;48.042;7.584;2023-03-05T00:04:30;90.14;-42.24;98.60;;
43385;Laerm;28988;48.042;7.584;2023-03-05T00:06:55;90.13;-42.24;98.60;;
43385;Laerm;28988;48.042;7.584;2023-03-05T00:09:20;90.14;-36.41;98.60;;
43385;Laerm;28988;48.042;7.584;2023-03-05T00:11:45;90.14;-42.24;98.60;;
43385;Laerm;28988;48.042;7.584;2023-03-05T00:14:11;90.14;-16.02;98.60;;
43385;Laerm;28988;48.042;7.584;2023-03-05T00:16:36;90.13;-42.24;98.60;;
43385;Laerm;28988;48.042;7.584;2023-03-05T00:19:02;90.14;-36.41;98.60;;
43385;Laerm;28988;48.042;7.584;2023-03-05T00:21:29;90.14;-37.56;98.60;;
43385;Laerm;28988;48.042;7.584;2023-03-05T00:23:55;90.13;-37.56;98.60;;
43385;Laerm;28988;48.042;7.584;2023-03-05T00:26:22;90.14;-36.41;98.60;;
43385;Laerm;28988;48.042;7.584;2023-03-05T00:28:48;90.14;-37.56;98.60;;
43385;Laerm;28988;48.042;7.584;2023-03-05T00:31:16;90.14;-36.41;98.60;;
43385;Laerm;28988;48.042;7.584;2023-03-05T00:33:42;90.14;-37.56;98.60;;
43385;Laerm;28988;48.042;7.584;2023-03-05T00:36:07;90.14;-17.33;98.60;;
43385;Laerm;28988;48.042;7.584;2023-03-05T00:38:33;90.13;-37.56;98.60;;
43385;Laerm;28988;48.042;7.584;2023-03-05T00:40:59;90.14;-42.24;98.60;;
43385;Laerm;28988;48.042;7.584;2023-03-05T00:43:24;90.14;-37.56;98.60;;
43385;Laerm;28988;48.042;7.584;2023-03-05T00:45:49;90.14;-37.56;98.60;;
43385;Laerm;28988;48.042;7.584;2023-03-05T00:48:15;90.13;-42.24;98.60;;
43385;Laerm;28988;48.042;7.584;2023-03-05T00:50:40;90.14;-42.24;98.60;;
43385;Laerm;28988;48.042;7.584;2023-03-05T00:53:05;90.14;-42.24;98.60;;
43385;Laerm;28988;48.042;7.584;2023-03-05T00:55:30;90.14;-36.41;98.60;;
43385;Laerm;28988;48.042;7.584;2023-03-05T00:57:56;90.13;-37.56;98.60;;
43385;Laerm;28988;48.042;7.584;2023-03-05T01:00:21;90.14;-42.24;98.60;;
43385;Laerm;28988;48.042;7.584;2023-03-05T01:02:46;90.13;-42.24;98.60;;
43385;Laerm;28988;48.042;7.584;2023-03-05T01:05:13;90.14;-37.56;98.60;;
43385;Laerm;28988;48.042;7.584;2023-03-05T01:07:38;90.14;-36.41;98.60;;
43385;Laerm;28988;48.042;7.584;2023-03-05T01:10:04;90.14;-21.54;98.60;;
43385;Laerm;28988;48.042;7.584;2023-03-05T01:12:29;90.14;-37.56;98.60;;
43385;Laerm;28988;48.042;7.584;2023-03-05T01:14:54;90.14;-37.56;98.60;;
43385;Laerm;28988;48.042;7.584;2023-03-05T01:17:20;90.14;-37.56;98.60;;
43385;Laerm;28988;48.042;7.584;2023-03-05T01:19:45;90.14;-42.24;98.60;;
43385;Laerm;28988;48.042;7.584;2023-03-05T01:22:10;90.13;-37.56;98.60;;
43385;Laerm;28988;48.042;7.584;2023-03-05T01:24:35;90.14;-36.41;98.60;;
43385;Laerm;28988;48.042;7.584;2023-03-05T01:27:00;90.14;-37.56;98.60;;
43385;Laerm;28988;48.042;7.584;2023-03-05T01:29:26;90.13;-36.41;98.60;;
43385;Laerm;28988;48.042;7.584;2023-03-05T01:31:52;90.14;-36.41;98.60;;
43385;Laerm;28988;48.042;7.584;2023-03-05T01:34:17;90.14;-36.41;98.60;;
43385;Laerm;28988;48.042;7.584;2023-03-05T01:36:42;90.13;-42.24;98.60;;
43385;Laerm;28988;48.042;7.584;2023-03-05T01:39:07;90.14;-17.33;98.60;;
43385;Laerm;28988;48.042;7.584;2023-03-05T01:41:33;90.13;-42.24;98.60;;
43385;Laerm;28988;48.042;7.584;2023-03-05T01:43:58;90.14;-42.24;98.60;;
43385;Laerm;28988;48.042;7.584;2023-03-05T01:46:25;90.14;-37.56;98.60;;
43385;Laerm;28988;48.042;7.584;2023-03-05T01:51:59;90.14;-42.24;98.60;;
43385;Laerm;28988;48.042;7.584;2023-03-05T01:54:27;90.14;-37.56;98.60;;
43385;Laerm;28988;48.042;7.584;2023-03-05T01:56:54;90.14;-37.56;98.60;;
43385;Laerm;28988;48.042;7.584;2023-03-05T01:59:20;90.14;-37.56;98.60;;
43385;Laerm;28988;48.042;7.584;2023-03-05T02:01:47;90.13;-37.56;98.60;;
43385;Laerm;28988;48.042;7.584;2023-03-05T02:04:14;90.14;-37.56;98.60;;
43385;Laerm;28988;48.042;7.584;2023-03-05T02:06:40;90.14;-42.24;98.60;;
43385;Laerm;28988;48.042;7.584;2023-03-05T02:09:07;90.14;-37.56;98.60;;
43385;Laerm;28988;48.042;7.584;2023-03-05T02:11:32;90.14;-42.24;98.60;;
43385;Laerm;28988;48.042;7.584;2023-03-05T02:13:58;90.14;-37.56;98.60;;
43385;Laerm;28988;48.042;7.584;2023-03-05T02:16:23;90.14;-21.54;98.60;;
43385;Laerm;28988;48.042;7.584;2023-03-05T02:18:48;90.14;-37.56;98.60;;
43385;Laerm;28988;48.042;7.584;2023-03-05T02:21:13;90.14;-42.24;98.60;;
43385;Laerm;28988;48.042;7.584;2023-03-05T02:23:50;90.14;-42.24;98.60;;
43385;Laerm;28988;48.042;7.584;2023-03-05T02:26:15;90.14;-42.24;98.60;;
43385;Laerm;28988;48.042;7.584;2023-03-05T02:31:10;90.14;-37.56;98.60;;
43385;Laerm;28988;48.042;7.584;2023-03-05T02:33:37;90.14;-42.24;98.60;;
43385;Laerm;28988;48.042;7.584;2023-03-05T02:36:02;90.14;-37.56;98.60;;
43385;Laerm;28988;48.042;7.584;2023-03-05T02:38:28;90.14;-42.24;98.60;;
43385;Laerm;28988;48.042;7.584;2023-03-05T02:40:53;90.14;-42.24;98.60;;
43385;Laerm;28988;48.042;7.584;2023-03-05T02:43:18;90.14;-37.56;98.60;;
43385;Laerm;28988;48.042;7.584;2023-03-05T02:45:44;90.13;-37.56;98.60;;
43385;Laerm;28988;48.042;7.584;2023-03-05T02:48:09;90.14;-42.24;98.60;;
43385;Laerm;28988;48.042;7.584;2023-03-05T02:50:34;90.14;-37.56;98.60;;
43385;Laerm;28988;48.042;7.584;2023-03-05T02:52:59;90.14;-42.24;98.60;;
43385;Laerm;28988;48.042;7.584;2023-03-05T02:55:25;90.14;-36.41;98.60;;
43385;Laerm;28988;48.042;7.584;2023-03-05T02:57:50;90.13;-42.24;98.60;;
43385;Laerm;28988;48.042;7.584;2023-03-05T03:00:15;90.14;-37.56;98.60;;
43385;Laerm;28988;48.042;7.584;2023-03-05T03:02:41;90.14;-42.24;98.60;;
43385;Laerm;28988;48.042;7.584;2023-03-05T03:05:06;90.14;-37.56;98.60;;
43385;Laerm;28988;48.042;7.584;2023-03-05T03:07:31;90.14;-37.56;98.60;;
43385;Laerm;28988;48.042;7.584;2023-03-05T03:09:58;90.14;-42.24;98.60;;
43385;Laerm;28988;48.042;7.584;2023-03-05T03:12:23;90.14;-37.56;98.60;;
43385;Laerm;28988;48.042;7.584;2023-03-05T03:14:48;90.14;-42.24;98.60;;
43385;Laerm;28988;48.042;7.584;2023-03-05T03:17:15;90.13;-37.56;98.60;;
43385;Laerm;28988;48.042;7.584;2023-03-05T03:19:41;90.14;-37.56;98.60;;
43385;Laerm;28988;48.042;7.584;2023-03-05T03:22:06;90.14;-37.56;98.60;;
43385;Laerm;28988;48.042;7.584;2023-03-05T03:24:32;90.14;-42.24;98.60;;
43385;Laerm;28988;48.042;7.584;2023-03-05T03:26:58;90.14;-42.24;98.60;;
43385;Laerm;28988;48.042;7.584;2023-03-05T03:29:23;90.14;-42.24;98.60;;
43385;Laerm;28988;48.042;7.584;2023-03-05T03:31:48;90.14;-21.54;98.60;;
43385;Laerm;28988;48.042;7.584;2023-03-05T03:34:14;90.14;-42.24;98.60;;
43385;Laerm;28988;48.042;7.584;2023-03-05T03:36:41;90.14;-42.24;98.60;;
43385;Laerm;28988;48.042;7.584;2023-03-05T03:39:06;90.14;-42.24;98.60;;
43385;Laerm;28988;48.042;7.584;2023-03-05T03:41:33;90.14;-37.56;98.60;;
43385;Laerm;28988;48.042;7.584;2023-03-05T03:43:59;90.14;-37.56;98.60;;
43385;Laerm;28988;48.042;7.584;2023-03-05T03:46:24;90.14;-37.56;98.60;;
43385;Laerm;28988;48.042;7.584;2023-03-05T03:48:49;90.14;-42.24;98.60;;
43385;Laerm;28988;48.042;7.584;2023-03-05T03:51:15;90.14;-42.24;98.60;;
43385;Laerm;28988;48.042;7.584;2023-03-05T03:53:40;90.14;-37.56;98.60;;
43385;Laerm;28988;48.042;7.584;2023-03-05T03:56:06;90.14;-37.56;98.60;;
43385;Laerm;28988;48.042;7.584;2023-03-05T03:58:31;90.14;-36.41;98.60;;
43385;Laerm;28988;48.042;7.584;2023-03-05T04:00:56;90.14;-37.56;98.60;;
43385;Laerm;28988;48.042;7.584;2023-03-05T04:03:21;90.14;-42.24;98.60;;
43385;Laerm;28988;48.042;7.584;2023-03-05T04:05:47;90.14;-42.24;98.60;;
43385;Laerm;28988;48.042;7.584;2023-03-05T04:08:12;90.14;-42.24;98.60;;
43385;Laerm;28988;48.042;7.584;2023-03-05T04:10:37;90.14;-37.56;98.60;;
43385;Laerm;28988;48.042;7.584;2023-03-05T04:13:04;90.15;-37.56;98.60;;
43385;Laerm;28988;48.042;7.584;2023-03-05T04:15:29;90.13;-42.24;98.60;;
43385;Laerm;28988;48.042;7.584;2023-03-05T04:17:54;90.14;-42.24;98.60;;
43385;Laerm;28988;48.042;7.584;2023-03-05T04:20:19;90.14;-42.24;98.60;;
43385;Laerm;28988;48.042;7.584;2023-03-05T04:22:44;90.14;-36.41;98.60;;
43385;Laerm;28988;48.042;7.584;2023-03-05T04:25:10;90.14;-42.24;98.60;;
43385;Laerm;28988;48.042;7.584;2023-03-05T04:27:35;90.14;-37.56;98.60;;
43385;Laerm;28988;48.042;7.584;2023-03-05T04:30:02;90.14;-37.56;98.60;;
43385;Laerm;28988;48.042;7.584;2023-03-05T04:32:28;90.14;-42.24;98.60;;
43385;Laerm;28988;48.042;7.584;2023-03-05T04:34:55;90.13;-37.56;98.60;;
43385;Laerm;28988;48.042;7.584;2023-03-05T04:37:20;90.14;-37.56;98.60;;
43385;Laerm;28988;48.042;7.584;2023-03-05T04:39:45;90.15;-42.24;98.60;;
43385;Laerm;28988;48.042;7.584;2023-03-05T04:42:10;90.14;-42.24;98.60;;
43385;Laerm;28988;48.042;7.584;2023-03-05T04:44:36;90.14;-42.24;98.60;;
43385;Laerm;28988;48.042;7.584;2023-03-05T04:47:01;90.14;-21.54;98.60;;
43385;Laerm;28988;48.042;7.584;2023-03-05T04:49:26;90.14;-42.24;98.60;;
43385;Laerm;28988;48.042;7.584;2023-03-05T04:51:51;90.14;-37.56;98.60;;
43385;Laerm;28988;48.042;7.584;2023-03-05T04:54:16;90.14;-42.24;98.60;;
43385;Laerm;28988;48.042;7.584;2023-03-05T04:56:42;90.14;-42.24;98.60;;
43385;Laerm;28988;48.042;7.584;2023-03-05T04:59:07;90.14;-42.24;98.60;;
43385;Laerm;28988;48.042;7.584;2023-03-05T05:01:32;90.13;-36.41;98.60;;
43385;Laerm;28988;48.042;7.584;2023-03-05T05:03:59;90.14;-42.24;98.60;;
43385;Laerm;28988;48.042;7.584;2023-03-05T05:06:24;90.14;-37.56;98.60;;
43385;Laerm;28988;48.042;7.584;2023-03-05T05:08:49;90.14;-42.24;98.60;;
43385;Laerm;28988;48.042;7.584;2023-03-05T05:11:15;90.14;-37.56;98.60;;
43385;Laerm;28988;48.042;7.584;2023-03-05T05:13:40;90.14;-42.24;98.60;;
43385;Laerm;28988;48.042;7.584;2023-03-05T05:16:06;90.14;-21.54;98.60;;
43385;Laerm;28988;48.042;7.584;2023-03-05T05:18:31;90.14;-21.54;98.60;;
43385;Laerm;28988;48.042;7.584;2023-03-05T05:20:56;90.15;-42.24;98.60;;
43385;Laerm;28988;48.042;7.584;2023-03-05T05:23:22;90.14;-36.41;98.60;;
43385;Laerm;28988;48.042;7.584;2023-03-05T05:25:54;90.14;-42.24;98.60;;
43385;Laerm;28988;48.042;7.584;2023-03-05T05:28:19;90.14;-42.24;98.60;;
43385;Laerm;28988;48.042;7.584;2023-03-05T05:30:44;90.13;-36.41;98.60;;
43385;Laerm;28988;48.042;7.584;2023-03-05T05:33:10;90.14;-42.24;98.60;;
43385;Laerm;28988;48.042;7.584;2023-03-05T05:35:37;90.13;-42.24;98.60;;
43385;Laerm;28988;48.042;7.584;2023-03-05T05:38:03;90.14;-36.41;98.60;;
43385;Laerm;28988;48.042;7.584;2023-03-05T05:40:28;90.13;-37.56;98.60;;
43385;Laerm;28988;48.042;7.584;2023-03-05T05:42:53;90.14;-37.56;98.60;;
43385;Laerm;28988;48.042;7.584;2023-03-05T05:45:18;90.14;-42.24;98.60;;
43385;Laerm;28988;48.042;7.584;2023-03-05T05:47:43;90.14;-42.24;98.60;;
43385;Laerm;28988;48.042;7.584;2023-03-05T05:50:09;90.14;-42.24;98.60;;
43385;Laerm;28988;48.042;7.584;2023-03-05T05:52:34;90.14;-36.41;98.60;;
43385;Laerm;28988;48.042;7.584;2023-03-05T05:54:59;90.13;-42.24;98.60;;
43385;Laerm;28988;48.042;7.584;2023-03-05T05:57:24;90.14;-36.41;98.60;;
43385;Laerm;28988;48.042;7.584;2023-03-05T05:59:50;90.14;-37.56;98.60;;
43385;Laerm;28988;48.042;7.584;2023-03-05T06:02:15;90.14;-42.24;98.60;;
43385;Laerm;28988;48.042;7.584;2023-03-05T06:04:40;90.13;-42.24;98.60;;
43385;Laerm;28988;48.042;7.584;2023-03-05T06:07:05;90.14;-42.24;98.60;;
43385;Laerm;28988;48.042;7.584;2023-03-05T06:09:31;90.14;-42.24;98.60;;
43385;Laerm;28988;48.042;7.584;2023-03-05T06:11:56;90.14;-37.56;98.60;;
43385;Laerm;28988;48.042;7.584;2023-03-05T06:14:21;90.14;-37.56;98.60;;
43385;Laerm;28988;48.042;7.584;2023-03-05T06:16:46;90.14;-37.56;98.60;;
43385;Laerm;28988;48.042;7.584;2023-03-05T06:19:12;90.14;-42.24;98.60;;
43385;Laerm;28988;48.042;7.584;2023-03-05T06:21:37;90.15;-42.24;98.60;;
43385;Laerm;28988;48.042;7.584;2023-03-05T06:24:03;90.14;-16.02;98.60;;
43385;Laerm;28988;48.042;7.584;2023-03-05T06:26:28;90.14;-37.56;98.60;;
43385;Laerm;28988;48.042;7.584;2023-03-05T06:28:53;90.14;-37.56;98.60;;
43385;Laerm;28988;48.042;7.584;2023-03-05T06:31:22;90.14;-42.24;98.60;;
43385;Laerm;28988;48.042;7.584;2023-03-05T06:33:49;90.14;-42.24;98.60;;
43385;Laerm;28988;48.042;7.584;2023-03-05T06:36:16;90.14;-37.56;98.60;;
43385;Laerm;28988;48.042;7.584;2023-03-05T06:38:41;90.14;-37.56;98.60;;
43385;Laerm;28988;48.042;7.584;2023-03-05T06:41:08;90.14;-42.24;98.60;;
43385;Laerm;28988;48.042;7.584;2023-03-05T06:43:35;90.14;-37.56;98.60;;
43385;Laerm;28988;48.042;7.584;2023-03-05T06:46:06;90.14;-42.24;98.60;;
43385;Laerm;28988;48.042;7.584;2023-03-05T06:48:32;90.14;-37.56;98.60;;
43385;Laerm;28988;48.042;7.584;2023-03-05T06:50:57;90.14;-37.56;98.60;;
43385;Laerm;28988;48.042;7.584;2023-03-05T06:53:23;90.14;-42.24;98.60;;
43385;Laerm;28988;48.042;7.584;2023-03-05T06:55:48;90.13;-42.24;98.60;;
43385;Laerm;28988;48.042;7.584;2023-03-05T06:58:14;90.14;-37.56;98.60;;
43385;Laerm;28988;48.042;7.584;2023-03-05T07:00:39;90.14;-42.24;98.60;;
43385;Laerm;28988;48.042;7.584;2023-03-05T07:03:04;90.13;-37.56;98.60;;
43385;Laerm;28988;48.042;7.584;2023-03-05T07:05:29;90.14;-42.24;98.60;;
43385;Laerm;28988;48.042;7.584;2023-03-05T07:07:54;90.14;-37.56;98.60;;
43385;Laerm;28988;48.042;7.584;2023-03-05T07:10:20;90.14;-42.24;98.60;;
43385;Laerm;28988;48.042;7.584;2023-03-05T07:12:45;90.14;-42.24;98.60;;
43385;Laerm;28988;48.042;7.584;2023-03-05T07:15:10;90.14;-21.54;98.60;;
43385;Laerm;28988;48.042;7.584;2023-03-05T07:17:35;90.13;-42.24;98.60;;
43385;Laerm;28988;48.042;7.584;2023-03-05T07:20:01;90.14;-42.24;98.60;;
43385;Laerm;28988;48.042;7.584;2023-03-05T07:22:26;90.14;-37.56;98.60;;
43385;Laerm;28988;48.042;7.584;2023-03-05T07:24:51;90.14;-37.56;98.60;;
43385;Laerm;28988;48.042;7.584;2023-03-05T07:27:16;90.13;-37.56;98.60;;
43385;Laerm;28988;48.042;7.584;2023-03-05T07:29:41;90.14;-42.24;98.60;;
43385;Laerm;28988;48.042;7.584;2023-03-05T07:32:07;90.14;-36.41;98.60;;
43385;Laerm;28988;48.042;7.584;2023-03-05T07:34:32;90.14;-42.24;98.60;;
43385;Laerm;28988;48.042;7.584;2023-03-05T07:36:57;90.13;-14.85;98.60;;
43385;Laerm;28988;48.042;7.584;2023-03-05T07:39:22;90.14;-36.41;98.60;;
43385;Laerm;28988;48.042;7.584;2023-03-05T07:41:47;90.13;-37.56;98.60;;
43385;Laerm;28988;48.042;7.584;2023-03-05T07:44:14;90.14;-37.56;98.60;;
43385;Laerm;28988;48.042;7.584;2023-03-05T07:46:41;90.14;-42.24;98.60;;
43385;Laerm;28988;48.042;7.584;2023-03-05T07:49:06;90.14;-37.56;98.60;;
43385;Laerm;28988;48.042;7.584;2023-03-05T07:51:31;90.13;-42.24;98.60;;
43385;Laerm;28988;48.042;7.584;2023-03-05T07:53:57;90.14;-42.24;98.60;;
43385;Laerm;28988;48.042;7.584;2023-03-05T07:56:27;90.14;-36.41;98.60;;
43385;Laerm;28988;48.042;7.584;2023-03-05T07:58:55;90.13;-37.56;98.60;;
43385;Laerm;28988;48.042;7.584;2023-03-05T08:01:20;90.14;-42.24;98.60;;
43385;Laerm;28988;48.042;7.584;2023-03-05T08:03:46;90.14;-42.24;98.60;;
43385;Laerm;28988;48.042;7.584;2023-03-05T08:06:11;90.14;-42.24;98.60;;
43385;Laerm;28988;48.042;7.584;2023-03-05T08:08:37;90.14;-17.33;98.60;;
43385;Laerm;28988;48.042;7.584;2023-03-05T08:11:03;90.14;-37.56;98.60;;
43385;Laerm;28988;48.042;7.584;2023-03-05T08:13:29;90.14;-37.56;98.60;;
43385;Laerm;28988;48.042;7.584;2023-03-05T08:15:54;90.14;-36.41;98.60;;
43385;Laerm;28988;48.042;7.584;2023-03-05T08:18:19;90.13;-37.56;98.60;;
43385;Laerm;28988;48.042;7.584;2023-03-05T08:20:44;90.14;-42.24;98.60;;
43385;Laerm;28988;48.042;7.584;2023-03-05T08:23:09;90.14;-16.02;98.60;;
43385;Laerm;28988;48.042;7.584;2023-03-05T08:25:35;90.14;-42.24;98.60;;
43385;Laerm;28988;48.042;7.584;2023-03-05T08:28:00;90.13;-37.56;98.60;;
43385;Laerm;28988;48.042;7.584;2023-03-05T08:30:25;90.14;-42.24;98.60;;
43385;Laerm;28988;48.042;7.584;2023-03-05T08:32:51;90.14;-42.24;98.60;;
43385;Laerm;28988;48.042;7.584;2023-03-05T08:35:16;90.13;-37.56;98.60;;
43385;Laerm;28988;48.042;7.584;2023-03-05T08:37:41;90.14;-37.56;98.60;;
43385;Laerm;28988;48.042;7.584;2023-03-05T08:40:07;90.13;-37.56;98.60;;
43385;Laerm;28988;48.042;7.584;2023-03-05T08:42:32;90.14;-21.54;98.60;;
43385;Laerm;28988;48.042;7.584;2023-03-05T08:44:57;90.13;-42.24;98.60;;
43385;Laerm;28988;48.042;7.584;2023-03-05T08:47:22;90.14;-37.56;98.60;;
43385;Laerm;28988;48.042;7.584;2023-03-05T08:49:49;90.13;-37.56;98.60;;
43385;Laerm;28988;48.042;7.584;2023-03-05T08:52:16;90.14;-16.02;98.60;;
43385;Laerm;28988;48.042;7.584;2023-03-05T08:54:41;90.13;-36.41;98.60;;
43385;Laerm;28988;48.042;7.584;2023-03-05T08:57:07;90.14;-14.85;98.60;;
43385;Laerm;28988;48.042;7.584;2023-03-05T08:59:32;90.13;-42.24;98.60;;
43385;Laerm;28988;48.042;7.584;2023-03-05T09:02:01;90.14;-37.56;98.60;;
43385;Laerm;28988;48.042;7.584;2023-03-05T09:04:26;90.14;-16.02;98.60;;
43385;Laerm;28988;48.042;7.584;2023-03-05T09:06:51;90.13;-42.24;98.60;;
43385;Laerm;28988;48.042;7.584;2023-03-05T09:09:16;90.14;-17.33;98.60;;
43385;Laerm;28988;48.042;7.584;2023-03-05T09:11:44;90.13;-42.24;98.60;;
43385;Laerm;28988;48.042;7.584;2023-03-05T09:14:09;90.13;-37.56;98.60;;
43385;Laerm;28988;48.042;7.584;2023-03-05T09:16:35;90.13;-17.33;98.60;;
43385;Laerm;28988;48.042;7.584;2023-03-05T09:19:01;90.14;-21.54;98.60;;
43385;Laerm;28988;48.042;7.584;2023-03-05T09:21:26;90.13;-42.24;98.60;;
43385;Laerm;28988;48.042;7.584;2023-03-05T09:23:51;90.14;-37.56;98.60;;
43385;Laerm;28988;48.042;7.584;2023-03-05T09:26:17;90.14;-42.24;98.60;;
43385;Laerm;28988;48.042;7.584;2023-03-05T09:28:46;90.13;-36.41;98.60;;
43385;Laerm;28988;48.042;7.584;2023-03-05T09:31:12;90.13;-16.02;98.60;;
43385;Laerm;28988;48.042;7.584;2023-03-05T09:33:37;90.13;-17.33;98.60;;
43385;Laerm;28988;48.042;7.584;2023-03-05T09:36:04;90.13;-37.56;98.60;;
43385;Laerm;28988;48.042;7.584;2023-03-05T09:38:30;90.14;-37.56;98.60;;
43385;Laerm;28988;48.042;7.584;2023-03-05T09:41:01;90.13;-37.56;98.60;;
43385;Laerm;28988;48.042;7.584;2023-03-05T09:46:05;90.13;-37.56;98.60;;
43385;Laerm;28988;48.042;7.584;2023-03-05T09:48:43;90.13;-16.02;98.60;;
43385;Laerm;28988;48.042;7.584;2023-03-05T09:51:14;90.13;-16.02;98.60;;
43385;Laerm;28988;48.042;7.584;2023-03-05T09:56:14;90.14;-17.33;98.60;;
43385;Laerm;28988;48.042;7.584;2023-03-05T09:58:40;90.13;-36.41;98.60;;
43385;Laerm;28988;48.042;7.584;2023-03-05T10:03:43;90.14;-17.33;98.60;;
43385;Laerm;28988;48.042;7.584;2023-03-05T10:06:54;90.13;-37.56;98.60;;
43385;Laerm;28988;48.042;7.584;2023-03-05T10:14:21;90.13;-42.24;98.60;;
43385;Laerm;28988;48.042;7.584;2023-03-05T10:16:57;90.13;-37.56;98.60;;
43385;Laerm;28988;48.042;7.584;2023-03-05T10:22:13;90.14;-42.24;98.60;;
43385;Laerm;28988;48.042;7.584;2023-03-05T10:24:43;90.13;-37.56;98.60;;
43385;Laerm;28988;48.042;7.584;2023-03-05T10:27:16;90.13;-37.56;98.60;;
43385;Laerm;28988;48.042;7.584;2023-03-05T10:32:21;90.14;-16.02;98.60;;
43385;Laerm;28988;48.042;7.584;2023-03-05T10:37:27;90.14;-21.54;98.60;;
43385;Laerm;28988;48.042;7.584;2023-03-05T10:39:59;90.13;-42.24;98.60;;
43385;Laerm;28988;48.042;7.584;2023-03-05T10:42:29;90.13;-14.85;98.60;;
43385;Laerm;28988;48.042;7.584;2023-03-05T10:44:59;90.13;-37.56;98.60;;
43385;Laerm;28988;48.042;7.584;2023-03-05T10:47:27;90.13;-22.78;98.60;;
43385;Laerm;28988;48.042;7.584;2023-03-05T10:49:53;90.13;-16.02;98.60;;
43385;Laerm;28988;48.042;7.584;2023-03-05T10:52:21;90.13;-14.85;98.60;;
43385;Laerm;28988;48.042;7.584;2023-03-05T10:54:48;90.13;-37.56;98.60;;
43385;Laerm;28988;48.042;7.584;2023-03-05T10:57:18;90.13;-16.02;98.60;;
43385;Laerm;28988;48.042;7.584;2023-03-05T11:02:19;90.13;-16.02;98.60;;
43385;Laerm;28988;48.042;7.584;2023-03-05T11:04:45;90.13;-14.85;98.60;;
43385;Laerm;28988;48.042;7.584;2023-03-05T11:09:38;90.13;-55.00;98.60;;
43385;Laerm;28988;48.042;7.584;2023-03-05T11:12:17;90.13;-14.85;98.60;;
43385;Laerm;28988;48.042;7.584;2023-03-05T11:17:21;90.13;-21.54;98.65;;
43385;Laerm;28988;48.042;7.584;2023-03-05T11:19:47;90.13;-17.33;98.60;;
43385;Laerm;28988;48.042;7.584;2023-03-05T11:22:16;90.13;-29.68;98.60;;
43385;Laerm;28988;48.042;7.584;2023-03-05T11:24:44;90.13;-16.02;98.60;;
43385;Laerm;28988;48.042;7.584;2023-03-05T11:29:54;90.13;-16.02;98.60;;
43385;Laerm;28988;48.042;7.584;2023-03-05T11:34:45;90.13;-14.85;98.60;;
43385;Laerm;28988;48.042;7.584;2023-03-05T11:37:18;90.13;-21.54;98.60;;
43385;Laerm;28988;48.042;7.584;2023-03-05T11:39:45;90.14;-22.13;98.66;;
43385;Laerm;28988;48.042;7.584;2023-03-05T11:42:12;90.13;-16.02;98.71;;
43385;Laerm;28988;48.042;7.584;2023-03-05T11:44:49;90.14;-20.19;98.86;;
43385;Laerm;28988;48.042;7.584;2023-03-05T11:50:11;90.14;-16.02;98.92;;
43385;Laerm;28988;48.042;7.584;2023-03-05T11:53:01;90.14;-17.78;98.88;;
43385;Laerm;28988;48.042;7.584;2023-03-05T11:55:43;90.14;-21.54;98.79;;
43385;Laerm;28988;48.042;7.584;2023-03-05T11:58:15;90.15;-29.68;98.75;;
43385;Laerm;28988;48.042;7.584;2023-03-05T12:00:44;90.16;-20.23;98.94;;
43385;Laerm;28988;48.042;7.584;2023-03-05T12:03:11;90.18;-18.03;98.90;;
43385;Laerm;28988;48.042;7.584;2023-03-05T12:05:38;90.21;-40.53;99.05;;
43385;Laerm;28988;48.042;7.584;2023-03-05T12:08:05;90.26;-18.83;99.12;;
43385;Laerm;28988;48.042;7.584;2023-03-05T12:10:36;90.25;-28.25;99.14;;
43385;Laerm;28988;48.042;7.584;2023-03-05T12:16:02;90.17;-29.68;99.02;;
43385;Laerm;28988;48.042;7.584;2023-03-05T12:21:06;90.16;-17.33;98.80;;
43385;Laerm;28988;48.042;7.584;2023-03-05T12:23:51;90.16;-55.00;98.81;;
43385;Laerm;28988;48.042;7.584;2023-03-05T12:26:17;90.16;-21.54;99.02;;
43385;Laerm;28988;48.042;7.584;2023-03-05T12:33:54;90.18;-20.23;98.91;;
43385;Laerm;28988;48.042;7.584;2023-03-05T12:38:52;90.30;-22.04;99.24;;
43385;Laerm;28988;48.042;7.584;2023-03-05T12:43:46;90.55;-47.77;99.44;;
43385;Laerm;28988;48.042;7.584;2023-03-05T12:46:32;90.53;-20.76;99.47;;
43385;Laerm;28988;48.042;7.584;2023-03-05T12:48:59;90.59;-14.06;99.67;;
43385;Laerm;28988;48.042;7.584;2023-03-05T12:51:28;90.70;-52.19;99.65;;
43385;Laerm;28988;48.042;7.584;2023-03-05T12:53:54;90.67;-32.14;99.70;;
43385;Laerm;28988;48.042;7.584;2023-03-05T12:56:20;90.63;-37.29;99.57;;
43385;Laerm;28988;48.042;7.584;2023-03-05T12:58:49;90.65;-38.31;99.55;;
43385;Laerm;28988;48.042;7.584;2023-03-05T13:01:31;90.59;-44.46;99.48;;
43385;Laerm;28988;48.042;7.584;2023-03-05T13:04:03;90.58;-39.49;99.73;;
43385;Laerm;28988;48.042;7.584;2023-03-05T13:06:35;90.60;-26.04;99.58;;
43385;Laerm;28988;48.042;7.584;2023-03-05T13:11:27;90.52;-39.79;99.54;;
43385;Laerm;28988;48.042;7.584;2023-03-05T13:13:52;90.75;-35.75;99.71;;
43385;Laerm;28988;48.042;7.584;2023-03-05T13:16:21;90.86;-39.62;99.72;;
43385;Laerm;28988;48.042;7.584;2023-03-05T13:18:47;91.00;-38.42;99.79;;
43385;Laerm;28988;48.042;7.584;2023-03-05T13:21:14;91.27;-18.64;100.09;;
43385;Laerm;28988;48.042;7.584;2023-03-05T13:23:46;91.02;-21.32;99.68;;
43385;Laerm;28988;48.042;7.584;2023-03-05T13:28:39;90.68;-48.41;99.54;;
43385;Laerm;28988;48.042;7.584;2023-03-05T13:31:11;90.59;-16.38;99.65;;
43385;Laerm;28988;48.042;7.584;2023-03-05T13:33:37;90.52;-19.22;99.41;;
43385;Laerm;28988;48.042;7.584;2023-03-05T13:36:03;90.73;-32.02;99.50;;
43385;Laerm;28988;48.042;7.584;2023-03-05T13:41:04;91.72;-44.44;100.36;;
43385;Laerm;28988;48.042;7.584;2023-03-05T13:43:30;92.22;-43.71;100.38;;
43385;Laerm;28988;48.042;7.584;2023-03-05T13:45:55;92.05;-47.73;100.49;;
43385;Laerm;28988;48.042;7.584;2023-03-05T13:48:21;92.21;-22.11;100.30;;
43385;Laerm;28988;48.042;7.584;2023-03-05T13:50:52;92.81;-26.59;100.81;;
43385;Laerm;28988;48.042;7.584;2023-03-05T13:55:49;92.63;-44.65;100.73;;
43385;Laerm;28988;48.042;7.584;2023-03-05T13:59:00;92.27;-36.49;100.80;;
43385;Laerm;28988;48.042;7.584;2023-03-05T14:01:01;92.20;-38.00;100.75;;
43385;Laerm;28988;48.042;7.584;2023-03-05T14:03:26;92.75;-36.33;100.80;;
43385;Laerm;28988;48.042;7.584;2023-03-05T14:05:52;93.02;-27.52;100.89;;
43385;Laerm;28988;48.042;7.584;2023-03-05T14:08:19;92.57;-28.03;100.91;;
43385;Laerm;28988;48.042;7.584;2023-03-05T14:10:45;91.63;-30.98;100.33;;
43385;Laerm;28988;48.042;7.584;2023-03-05T14:13:11;90.90;-23.11;99.94;;
43385;Laerm;28988;48.042;7.584;2023-03-05T14:15:37;90.53;-21.26;99.66;;
43385;Laerm;28988;48.042;7.584;2023-03-05T14:20:47;90.21;-55.94;99.08;;
43385;Laerm;28988;48.042;7.584;2023-03-05T14:23:33;90.17;-25.70;99.00;;
43385;Laerm;28988;48.042;7.584;2023-03-05T14:28:42;90.15;-44.06;98.82;;
43385;Laerm;28988;48.042;7.584;2023-03-05T14:31:14;90.15;-22.77;99.06;;
43385;Laerm;28988;48.042;7.584;2023-03-05T14:33:40;90.15;-21.54;98.76;;
43385;Laerm;28988;48.042;7.584;2023-03-05T14:36:05;90.13;-14.85;98.79;;
43385;Laerm;28988;48.042;7.584;2023-03-05T14:38:32;90.14;-14.85;98.76;;
43385;Laerm;28988;48.042;7.584;2023-03-05T14:41:17;90.13;-14.66;98.76;;
43385;Laerm;28988;48.042;7.584;2023-03-05T14:43:42;90.13;-21.54;98.73;;